Time;durP1;ratioP1;P1;durP2;ratioP2;P2;SDS_P1;SDS_P2;PMS_P1;PMS_P2;Temp;Humidity;BMP_temperature;BMP_pressure;BME280_temperature;BME280_humidity;BME280_pressure;Samples;Min_cycle;Max_cycle;Signal;HPM_P1;HPM_P2
2021/08/01 13:05:25;;;;;;;10.65;7.20;;;1049.90;1100.80;;;;;;5060050;28;20428;-74
2021/08/01 13:07:51;;;;;;;13.52;6.57;;;1024.90;1100.80;;;;;;5055709;28;20165;-74
2021/08/01 13:10:18;;;;;;;11.77;7.53;;;1049.60;1100.80;;;;;;5053190;28;20104;-75
2021/08/01 13:13:09;;;;;;;16.00;8.48;;;1050.30;1100.80;;;;;;5055318;28;20104;-73
2021/08/01 13:15:37;;;;;;;11.63;8.25;;;1101.50;1049.60;;;;;;5059897;28;20016;-74
2021/08/01 13:18:07;;;;;;;16.60;8.63;;;1152.00;1049.60;;;;;;5053374;28;20047;-74
2021/08/01 13:20:41;;;;;;;12.60;7.65;;;1152.60;998.40;;;;;;5057533;28;20124;-74
2021/08/01 13:23:34;;;;;;;11.20;5.93;;;1152.80;998.40;;;;;;5053519;28;20024;-74
2021/08/01 13:26:29;;;;;;;11.32;6.25;;;1178.20;972.80;;;;;;5038074;28;20278;-75
2021/08/01 13:29:07;;;;;;;15.90;7.38;;;1178.40;998.40;;;;;;5056568;28;20044;-75
2021/08/01 13:31:33;;;;;;;8.75;6.35;;;;;;;;;;5058961;28;20029;-75
2021/08/01 13:34:02;;;;;;;13.05;7.32;;;1203.30;998.40;;;;;;5060183;28;20087;-74
2021/08/01 13:37:03;;;;;;;11.68;7.78;;;1203.90;972.80;;;;;;5049910;28;20104;-75
2021/08/01 13:39:49;;;;;;;12.52;7.28;;;1228.90;896.00;;;;;;5037121;28;20021;-75
2021/08/01 13:42:17;;;;;;;11.07;7.22;;;1203.80;896.00;;;;;;5034917;28;20030;-74
2021/08/01 13:44:43;;;;;;;9.80;6.18;;;1177.90;972.80;;;;;;5031736;28;20108;-75
2021/08/01 13:47:09;;;;;;;12.48;6.43;;;1126.80;998.40;;;;;;5035062;28;20030;-76
2021/08/01 13:49:35;;;;;;;12.77;7.28;;;1126.50;1024.00;;;;;;5017358;28;20040;-76
2021/08/01 13:52:00;;;;;;;12.75;7.03;;;1101.70;998.40;;;;;;5037493;28;20041;-78
2021/08/01 13:54:26;;;;;;;11.43;7.10;;;1101.50;1024.00;;;;;;5013751;28;20038;-77
2021/08/01 13:56:52;;;;;;;9.98;6.20;;;1076.10;1024.00;;;;;;5021806;28;20025;-77
2021/08/01 13:59:18;;;;;;;11.27;6.93;;;1075.30;1049.60;;;;;;5020720;28;20029;-76
2021/08/01 14:01:44;;;;;;;14.40;6.63;;;1050.10;1075.20;;;;;;5032594;28;20052;-77
2021/08/01 14:04:10;;;;;;;9.45;6.55;;;1050.20;1075.20;;;;;;5039934;28;20463;-76
2021/08/01 14:06:39;;;;;;;17.15;7.10;;;1049.80;1100.80;;;;;;5033604;28;20476;-76
2021/08/01 14:09:06;;;;;;;12.20;5.93;;;1050.30;1100.80;;;;;;5033155;28;20511;-76
2021/08/01 14:11:34;;;;;;;15.38;6.95;;;1100.80;1075.20;;;;;;5039963;28;20068;-75
2021/08/01 14:14:00;;;;;;;13.38;6.47;;;1126.60;1024.00;;;;;;5046770;28;20841;-76
2021/08/01 14:16:25;;;;;;;10.15;6.55;;;1152.00;1024.00;;;;;;5043869;28;20029;-77
2021/08/01 14:18:51;;;;;;;14.18;6.53;;;1152.80;1024.00;;;;;;5049533;28;20464;-76
2021/08/01 14:21:17;;;;;;;14.85;6.00;;;1178.40;998.40;;;;;;5050998;28;20432;-76
2021/08/01 14:23:43;;;;;;;16.73;7.18;;;1203.40;972.80;;;;;;5043578;28;20047;-76
2021/08/01 14:26:09;;;;;;;19.80;7.95;;;1127.20;1049.60;;;;;;5039346;28;20082;-77
2021/08/01 14:28:37;;;;;;;19.55;7.45;;;1101.60;1075.20;;;;;;5037979;28;20169;-76
2021/08/01 14:31:07;;;;;;;24.60;6.82;;;1101.10;1100.80;;;;;;5044103;28;20025;-76
2021/08/01 14:33:37;;;;;;;25.85;8.10;;;1100.90;1126.40;;;;;;5047009;28;20096;-76
2021/08/01 14:36:05;;;;;;;24.67;6.90;;;1076.00;1126.40;;;;;;5041801;28;20061;-75
2021/08/01 14:38:35;;;;;;;17.98;8.38;;;1075.40;1177.60;;;;;;5035772;28;20104;-76
2021/08/01 14:41:05;;;;;;;23.13;8.52;;;1050.20;1177.60;;;;;;5046911;28;20021;-76
2021/08/01 14:43:41;;;;;;;22.02;8.63;;;1049.90;1203.20;;;;;;5037189;28;20034;-77
2021/08/01 14:46:11;;;;;;;36.40;8.25;;;1024.60;1177.60;;;;;;5054656;28;20048;-75
2021/08/01 14:48:41;;;;;;;25.95;8.20;;;1024.20;1177.60;;;;;;5033802;28;20076;-76
2021/08/01 14:53:54;;;;;;;23.50;9.30;;;1024.20;1177.60;;;;;;5029617;28;20083;-76
2021/08/01 14:56:25;;;;;;;32.10;9.77;;;999.30;1228.80;;;;;;5030391;28;20499;-76
2021/08/01 14:59:00;;;;;;;25.70;8.60;;;999.30;1228.80;;;;;;5031827;28;20037;-75
2021/08/01 15:01:34;;;;;;;29.98;7.35;;;999.30;1228.80;;;;;;5029738;28;20040;-76
2021/08/01 15:04:22;;;;;;;21.70;7.07;;;998.90;1228.80;;;;;;5028565;28;20061;-75
2021/08/01 15:07:21;;;;;;;20.50;8.18;;;998.50;1254.40;;;;;;5031333;28;20053;-76
2021/08/01 15:10:15;;;;;;;22.92;6.88;;;998.60;1254.40;;;;;;4996378;28;20076;-76
2021/08/01 15:12:47;;;;;;;17.80;6.22;;;973.70;1254.40;;;;;;5006573;28;20116;-76
2021/08/01 15:15:18;;;;;;;20.95;6.85;;;973.30;1228.80;;;;;;5007715;28;20062;-76
2021/08/01 15:17:50;;;;;;;18.85;6.10;;;973.30;1228.80;;;;;;4993890;28;20494;-75
2021/08/01 15:20:16;;;;;;;23.85;6.85;;;973.10;1254.40;;;;;;4991557;28;20038;-75
2021/08/01 15:22:48;;;;;;;19.83;9.25;;;972.90;1254.40;;;;;;4994223;28;20026;-75
2021/08/01 15:25:16;;;;;;;25.08;8.10;;;972.90;1280.00;;;;;;5012507;28;20022;-75
2021/08/01 15:27:43;;;;;;;17.88;7.45;;;948.10;1254.40;;;;;;5007221;28;20033;-75
2021/08/01 15:30:14;;;;;;;19.73;7.78;;;947.80;1280.00;;;;;;4990731;28;20118;-76
2021/08/01 15:32:46;;;;;;;22.63;6.57;;;947.70;1280.00;;;;;;5007672;28;20038;-75
2021/08/01 15:35:29;;;;;;;21.30;8.18;;;947.40;1280.00;;;;;;5008470;28;20034;-75
2021/08/01 15:38:10;;;;;;;23.83;7.43;;;947.20;1305.60;;;;;;5009165;28;20034;-75
2021/08/01 15:40:36;;;;;;;18.63;7.22;;;922.40;1305.60;;;;;;5008590;28;20113;-75
2021/08/01 15:43:09;;;;;;;19.80;6.93;;;922.10;1331.20;;;;;;5005407;28;20176;-75
2021/08/01 15:45:35;;;;;;;15.48;7.85;;;922.00;1331.20;;;;;;4997481;28;20038;-75
2021/08/01 15:48:06;;;;;;;15.90;8.65;;;922.10;1331.20;;;;;;5024380;28;20030;-74
2021/08/01 15:50:31;;;;;;;23.88;9.45;;;922.10;1356.80;;;;;;5030372;28;20028;-75
2021/08/01 15:53:05;;;;;;;14.63;6.55;;;922.10;1356.80;;;;;;5029780;28;20022;-75
2021/08/01 15:55:36;;;;;;;25.85;8.27;;;922.00;1382.40;;;;;;5032350;28;20472;-75
2021/08/01 15:58:28;;;;;;;18.20;6.90;;;921.80;1382.40;;;;;;5032351;28;20503;-75
2021/08/01 16:01:02;;;;;;;20.58;6.60;;;921.60;1408.00;;;;;;5008328;28;20413;-75
2021/08/01 16:03:49;;;;;;;20.83;7.10;;;896.80;1382.40;;;;;;5011639;28;20492;-76
2021/08/01 16:06:21;;;;;;;21.95;6.82;;;896.60;1408.00;;;;;;4994862;28;20037;-74
2021/08/01 16:08:57;;;;;;;21.90;7.55;;;896.50;1433.60;;;;;;5009591;28;20028;-75
2021/08/01 16:11:33;;;;;;;15.88;6.32;;;896.40;1433.60;;;;;;4992499;28;20030;-75
2021/08/01 16:14:03;;;;;;;22.25;7.32;;;896.40;1433.60;;;;;;4991734;28;20038;-75
2021/08/01 16:16:42;;;;;;;21.58;6.30;;;896.40;1433.60;;;;;;4996296;28;20505;-74
2021/08/01 16:19:15;;;;;;;21.25;7.88;;;896.40;1433.60;;;;;;5009469;28;20504;-75
2021/08/01 16:21:45;;;;;;;18.13;6.90;;;896.50;1433.60;;;;;;4996379;28;20095;-75
2021/08/01 16:24:11;;;;;;;19.58;7.93;;;896.50;1433.60;;;;;;4993018;28;20045;-75
2021/08/01 16:26:40;;;;;;;15.32;6.75;;;896.50;1433.60;;;;;;4993911;28;20548;-75
2021/08/01 16:29:06;;;;;;;21.88;7.60;;;896.50;1459.20;;;;;;5009858;28;20114;-75
2021/08/01 16:31:34;;;;;;;17.20;6.93;;;896.30;1459.20;;;;;;4992197;28;20607;-75
2021/08/01 16:34:02;;;;;;;18.60;7.70;;;896.10;1459.20;;;;;;4994468;28;20589;-75
2021/08/01 16:36:29;;;;;;;16.00;8.02;;;896.00;1459.20;;;;;;5009664;28;20452;-76
2021/08/01 16:39:04;;;;;;;20.00;7.43;;;871.30;1433.60;;;;;;5028783;28;20030;-75
2021/08/01 16:41:45;;;;;;;15.88;8.50;;;896.00;1408.00;;;;;;5030285;28;20459;-75
2021/08/01 16:44:47;;;;;;;20.02;5.65;;;896.10;1408.00;;;;;;5028390;28;20672;-75
2021/08/01 16:47:44;;;;;;;12.45;6.45;;;896.40;1408.00;;;;;;5029117;28;20132;-75
2021/08/01 16:50:19;;;;;;;12.60;6.22;;;896.60;1382.40;;;;;;5023230;28;20026;-75
2021/08/01 16:53:06;;;;;;;21.30;6.47;;;896.60;1356.80;;;;;;5061008;28;20021;-75
2021/08/01 16:56:20;;;;;;;14.25;6.95;;;896.30;1382.40;;;;;;5029558;28;20057;-75
2021/08/01 16:58:51;;;;;;;20.95;7.90;;;896.10;1408.00;;;;;;5007631;28;20076;-75
2021/08/01 17:01:37;;;;;;;13.38;7.10;;;896.00;1433.60;;;;;;5006309;28;20018;-75
2021/08/01 17:04:24;;;;;;;18.60;7.22;;;871.20;1433.60;;;;;;4986012;28;20061;-75
2021/08/01 17:07:02;;;;;;;14.75;7.20;;;871.10;1433.60;;;;;;5005831;28;20147;-75
2021/08/01 17:09:32;;;;;;;15.75;7.47;;;871.10;1459.20;;;;;;4987196;28;20759;-74
2021/08/01 17:12:12;;;;;;;13.02;6.60;;;871.10;1433.60;;;;;;5006480;28;20121;-75
2021/08/01 17:14:49;;;;;;;16.85;7.68;;;871.10;1459.20;;;;;;4992208;28;20057;-75
2021/08/01 17:17:18;;;;;;;15.05;7.85;;;871.10;1459.20;;;;;;5005405;28;20054;-74
2021/08/01 17:19:46;;;;;;;21.83;7.57;;;871.10;1459.20;;;;;;5007542;28;20503;-74
2021/08/01 17:22:14;;;;;;;16.98;7.15;;;871.10;1459.20;;;;;;4993575;28;20184;-75
2021/08/01 17:24:49;;;;;;;15.27;6.65;;;871.00;1459.20;;;;;;5007952;28;20120;-75
2021/08/01 17:27:17;;;;;;;16.50;7.78;;;871.00;1484.80;;;;;;5004154;28;20036;-75
2021/08/01 17:29:44;;;;;;;21.20;7.68;;;870.90;1484.80;;;;;;4990956;28;20030;-73
2021/08/01 17:32:21;;;;;;;14.77;7.20;;;870.90;1484.80;;;;;;5008735;28;20407;-72
2021/08/01 17:34:59;;;;;;;15.43;8.00;;;870.90;1484.80;;;;;;4998263;28;20050;-73
2021/08/01 17:37:28;;;;;;;19.75;9.23;;;870.70;1510.40;;;;;;4991426;28;20109;-72
2021/08/01 17:40:00;;;;;;;13.35;6.68;;;870.60;1536.00;;;;;;4992496;28;20721;-72
2021/08/01 17:42:30;;;;;;;19.88;7.63;;;870.40;1536.00;;;;;;4993335;28;20409;-72
2021/08/01 17:45:00;;;;;;;21.83;9.18;;;870.40;1536.00;;;;;;4988309;28;20084;-72
2021/08/01 17:47:30;;;;;;;23.77;8.02;;;845.70;1561.60;;;;;;4995890;28;20033;-72
2021/08/01 17:49:56;;;;;;;14.65;8.10;;;845.60;1561.60;;;;;;4993222;28;20029;-72
2021/08/01 17:52:31;;;;;;;20.35;8.85;;;845.30;1587.20;;;;;;4991219;28;20026;-72
2021/08/01 17:55:00;;;;;;;20.97;9.57;;;845.30;1587.20;;;;;;4992930;28;20129;-72
2021/08/01 17:57:35;;;;;;;27.38;9.95;;;845.20;1587.20;;;;;;4985841;28;20541;-72
2021/08/01 18:00:01;;;;;;;26.60;11.77;;;845.10;1587.20;;;;;;4990329;28;20030;-72
2021/08/01 18:02:27;;;;;;;21.50;11.65;;;845.00;1612.80;;;;;;4996111;28;20566;-72
2021/08/01 18:04:52;;;;;;;17.05;10.15;;;845.00;1612.80;;;;;;5028773;28;20054;-73
2021/08/01 18:07:32;;;;;;;23.90;9.30;;;844.80;1638.40;;;;;;5027897;28;20033;-72
2021/08/01 18:10:05;;;;;;;19.27;10.18;;;820.10;1638.40;;;;;;5030919;28;20463;-73
2021/08/01 18:13:04;;;;;;;21.60;9.45;;;819.90;1638.40;;;;;;5033801;28;20407;-73
2021/08/01 18:15:35;;;;;;;18.60;10.90;;;819.80;1664.00;;;;;;5027542;28;20037;-72
2021/08/01 18:18:03;;;;;;;15.75;9.32;;;819.40;1689.60;;;;;;5060152;28;20392;-73
2021/08/01 18:20:33;;;;;;;19.35;8.68;;;819.40;1689.60;;;;;;5031646;28;20557;-72
2021/08/01 18:23:06;;;;;;;16.67;8.32;;;794.50;1715.20;;;;;;5029520;28;20025;-72
2021/08/01 18:25:33;;;;;;;22.23;7.97;;;794.50;1715.20;;;;;;5029479;28;20536;-71
2021/08/01 18:28:02;;;;;;;22.15;6.90;;;794.10;1715.20;;;;;;5029246;28;20033;-72
2021/08/01 18:30:31;;;;;;;17.92;6.50;;;794.00;1715.20;;;;;;5028331;28;20376;-71
2021/08/01 18:33:04;;;;;;;14.27;6.13;;;793.80;1715.20;;;;;;5028530;28;20521;-72
2021/08/01 18:35:33;;;;;;;13.27;5.75;;;793.80;1740.80;;;;;;5030080;28;20100;-72
2021/08/01 18:38:05;;;;;;;12.68;6.50;;;793.60;1740.80;;;;;;5028425;28;20018;-72
2021/08/01 18:40:37;;;;;;;11.48;5.97;;;768.90;1740.80;;;;;;5029583;28;20021;-72
2021/08/01 18:43:07;;;;;;;20.73;6.47;;;768.70;1740.80;;;;;;5028717;28;20048;-72
2021/08/01 18:45:34;;;;;;;10.57;5.75;;;768.60;1766.40;;;;;;5029280;28;20033;-72
2021/08/01 18:48:02;;;;;;;11.98;5.30;;;768.40;1792.00;;;;;;5028595;28;20449;-72
2021/08/01 18:50:37;;;;;;;10.35;5.90;;;768.30;1792.00;;;;;;5031199;28;20028;-72
2021/08/01 18:53:04;;;;;;;12.57;6.10;;;768.20;1817.60;;;;;;5027423;28;20704;-72
2021/08/01 18:55:34;;;;;;;13.82;7.45;;;768.10;1817.60;;;;;;5030213;28;20774;-72
2021/08/01 18:58:01;;;;;;;18.02;6.07;;;768.10;1843.20;;;;;;5031924;28;20113;-71
2021/08/01 19:00:33;;;;;;;13.00;6.75;;;768.00;1843.20;;;;;;5026859;28;20037;-73
2021/08/01 19:03:06;;;;;;;13.52;6.90;;;743.20;1868.80;;;;;;5030498;28;20065;-72
2021/08/01 19:05:46;;;;;;;11.98;7.30;;;743.10;1894.40;;;;;;5027738;28;20060;-72
2021/08/01 19:08:13;;;;;;;16.25;7.93;;;743.00;1920.00;;;;;;5031823;28;20044;-72
2021/08/01 19:10:40;;;;;;;11.93;9.63;;;742.90;1920.00;;;;;;5031970;28;20097;-72
2021/08/01 19:13:16;;;;;;;15.90;8.75;;;742.90;1945.60;;;;;;5047872;28;20021;-72
2021/08/01 19:16:07;;;;;;;14.35;8.35;;;742.90;1945.60;;;;;;5047523;28;20082;-72
2021/08/01 19:19:12;;;;;;;13.68;6.95;;;742.90;1945.60;;;;;;5042017;28;20032;-72
2021/08/01 19:21:44;;;;;;;13.57;8.90;;;742.80;1945.60;;;;;;5041291;28;20029;-72
2021/08/01 19:24:29;;;;;;;12.68;7.57;;;742.90;1945.60;;;;;;5040248;28;20047;-72
2021/08/01 19:26:58;;;;;;;18.33;7.88;;;742.80;1945.60;;;;;;5046340;28;20561;-72
2021/08/01 19:29:36;;;;;;;11.85;6.68;;;742.80;1945.60;;;;;;5041322;28;20495;-72
2021/08/01 19:32:07;;;;;;;11.15;6.05;;;742.70;1971.20;;;;;;5043927;28;20093;-72
2021/08/01 19:34:58;;;;;;;8.70;6.05;;;742.70;1945.60;;;;;;5044108;28;20055;-73
2021/08/01 19:37:25;;;;;;;15.07;6.22;;;742.60;1971.20;;;;;;5071724;28;20044;-72
2021/08/01 19:39:58;;;;;;;13.75;6.13;;;742.60;1971.20;;;;;;5041853;28;20091;-72
2021/08/01 19:42:31;;;;;;;11.63;6.47;;;742.60;1971.20;;;;;;5039269;28;20788;-72
2021/08/01 19:44:59;;;;;;;10.98;6.15;;;742.50;1971.20;;;;;;5047027;28;20070;-72
2021/08/01 19:47:35;;;;;;;16.52;7.63;;;742.60;1971.20;;;;;;5048372;28;20558;-72
2021/08/01 19:50:09;;;;;;;10.65;6.95;;;742.50;1996.80;;;;;;5042530;28;20059;-73
2021/08/01 19:52:38;;;;;;;11.73;5.47;;;742.50;1996.80;;;;;;5044393;28;20478;-72
2021/08/01 19:55:04;;;;;;;14.30;6.28;;;742.50;1996.80;;;;;;5041534;28;20055;-72
2021/08/01 19:57:31;;;;;;;12.35;5.93;;;742.50;1996.80;;;;;;5046480;28;20032;-72
2021/08/01 20:00:07;;;;;;;10.57;6.43;;;742.40;1996.80;;;;;;5048374;28;20028;-72
2021/08/01 20:02:40;;;;;;;13.23;5.82;;;742.50;1996.80;;;;;;5045358;28;20090;-72
2021/08/01 20:05:08;;;;;;;11.10;6.05;;;742.40;2022.40;;;;;;5042375;28;20102;-72
2021/08/01 20:07:37;;;;;;;11.55;5.53;;;742.40;2048.00;;;;;;5039045;28;20463;-72
2021/08/01 20:10:09;;;;;;;13.93;5.85;;;742.60;2048.00;;;;;;5044032;28;20064;-72
2021/08/01 20:12:39;;;;;;;18.70;6.40;;;717.40;2048.00;;;;;;5038322;28;20017;-72
2021/08/01 20:15:09;;;;;;;14.10;6.85;;;717.40;2048.00;;;;;;5047561;28;20029;-72
2021/08/01 20:17:39;;;;;;;13.15;6.05;;;717.40;2048.00;;;;;;5037294;28;20112;-72
2021/08/01 20:20:14;;;;;;;21.83;6.03;;;717.40;2073.60;;;;;;5044631;28;20059;-72
2021/08/01 20:22:39;;;;;;;14.40;5.40;;;717.20;2099.20;;;;;;5039263;28;20029;-72
2021/08/01 20:25:17;;;;;;;12.38;6.28;;;717.20;2124.80;;;;;;5046408;28;20024;-72
2021/08/01 20:27:49;;;;;;;16.17;6.07;;;717.00;2124.80;;;;;;5040674;28;20540;-72
2021/08/01 20:30:15;;;;;;;13.10;5.85;;;717.00;2150.40;;;;;;5048179;28;20057;-72
2021/08/01 20:32:40;;;;;;;11.25;5.72;;;716.90;2124.80;;;;;;5038077;28;20063;-72
2021/08/01 20:35:22;;;;;;;13.10;5.82;;;717.00;2124.80;;;;;;5030808;28;20041;-72
2021/08/01 20:37:50;;;;;;;14.32;6.40;;;717.00;2124.80;;;;;;5034808;28;20052;-72
2021/08/01 20:40:16;;;;;;;11.75;6.20;;;716.80;2150.40;;;;;;5042748;28;20024;-72
2021/08/01 20:42:42;;;;;;;16.25;6.10;;;717.20;2150.40;;;;;;5045490;28;20021;-72
2021/08/01 20:45:08;;;;;;;11.40;5.72;;;717.10;2124.80;;;;;;5035944;28;20036;-72
2021/08/01 20:47:34;;;;;;;9.75;4.53;;;717.10;2150.40;;;;;;5020337;28;20046;-73
2021/08/01 20:50:00;;;;;;;11.65;5.38;;;717.00;2150.40;;;;;;5036217;28;20565;-72
2021/08/01 20:52:26;;;;;;;16.52;5.32;;;717.00;2150.40;;;;;;5046503;28;20103;-72
2021/08/01 20:54:52;;;;;;;15.05;6.45;;;716.90;2176.00;;;;;;5048206;28;20775;-72
2021/08/01 20:57:18;;;;;;;13.40;5.30;;;716.90;2176.00;;;;;;5042407;28;20493;-71
2021/08/01 20:59:43;;;;;;;14.82;6.50;;;716.90;2201.60;;;;;;5045048;28;20053;-72
2021/08/01 21:02:09;;;;;;;13.88;5.50;;;716.90;2201.60;;;;;;5041886;28;20422;-73
2021/08/01 21:04:35;;;;;;;17.35;6.05;;;716.90;2201.60;;;;;;5042600;28;20097;-71
2021/08/01 21:07:00;;;;;;;14.20;4.78;;;716.80;2227.20;;;;;;5040940;28;20439;-73
2021/08/01 21:09:26;;;;;;;13.90;6.38;;;692.10;2201.60;;;;;;5041331;28;20112;-72
2021/08/01 21:11:52;;;;;;;10.70;4.07;;;716.80;2201.60;;;;;;5044059;28;20112;-72
2021/08/01 21:14:17;;;;;;;11.15;4.47;;;692.00;2176.00;;;;;;5041578;28;20099;-72
2021/08/01 21:16:43;;;;;;;11.38;4.50;;;692.10;2176.00;;;;;;5042543;28;20036;-72
2021/08/01 21:19:09;;;;;;;11.32;4.68;;;716.80;2201.60;;;;;;5038842;28;20056;-72
2021/08/01 21:21:36;;;;;;;6.13;4.50;;;692.10;2201.60;;;;;;5039233;28;20020;-72
2021/08/01 21:24:02;;;;;;;8.43;4.03;;;692.00;2201.60;;;;;;5039682;28;20032;-72
2021/08/01 21:26:28;;;;;;;9.50;4.30;;;692.00;2227.20;;;;;;5048045;28;20514;-72
2021/08/01 21:28:54;;;;;;;7.22;4.93;;;691.90;2227.20;;;;;;5042737;28;20025;-72
2021/08/01 21:31:20;;;;;;;16.63;4.70;;;692.00;2227.20;;;;;;5039482;28;20107;-72
2021/08/01 21:33:46;;;;;;;11.20;4.38;;;692.10;2227.20;;;;;;5049770;28;20108;-73
2021/08/01 21:36:12;;;;;;;7.40;3.88;;;692.00;2227.20;;;;;;5046182;28;20033;-73
2021/08/01 21:38:37;;;;;;;19.70;6.20;;;691.90;2252.80;;;;;;5048506;28;20471;-73
2021/08/01 21:41:03;;;;;;;10.23;3.58;;;691.70;2278.40;;;;;;5048108;28;20047;-73
2021/08/01 21:43:29;;;;;;;12.00;4.57;;;691.50;2278.40;;;;;;5041341;28;20048;-73
2021/08/01 21:45:55;;;;;;;8.13;4.35;;;691.50;2278.40;;;;;;5044012;28;20059;-73
2021/08/01 21:48:20;;;;;;;9.15;3.92;;;691.50;2304.00;;;;;;5044607;28;20021;-73
2021/08/01 21:50:47;;;;;;;11.88;4.00;;;691.30;2329.60;;;;;;5067359;28;20056;-73
2021/08/01 21:53:13;;;;;;;11.23;4.38;;;691.40;2329.60;;;;;;5037878;28;20074;-73
2021/08/01 21:55:39;;;;;;;10.07;4.30;;;691.50;2304.00;;;;;;5033943;28;20033;-73
2021/08/01 21:58:05;;;;;;;11.25;3.83;;;691.60;2304.00;;;;;;5046721;28;20035;-72
2021/08/01 22:00:30;;;;;;;8.93;3.88;;;691.70;2304.00;;;;;;5044679;28;20396;-72
2021/08/01 22:03:11;;;;;;;7.88;5.07;;;691.80;2304.00;;;;;;5047178;28;20371;-73
2021/08/01 22:05:41;;;;;;;8.98;3.88;;;691.80;2304.00;;;;;;5042723;28;20346;-72
2021/08/01 22:08:09;;;;;;;12.68;7.88;;;691.70;2304.00;;;;;;5047382;28;20021;-72
2021/08/01 22:10:35;;;;;;;9.82;5.93;;;691.80;2304.00;;;;;;5040565;28;20021;-73
2021/08/01 22:13:01;;;;;;;11.60;4.40;;;691.90;2304.00;;;;;;5031701;28;20463;-72
2021/08/01 22:15:26;;;;;;;8.68;3.88;;;691.90;2304.00;;;;;;5031714;28;20030;-72
2021/08/01 22:17:52;;;;;;;9.45;3.88;;;692.00;2304.00;;;;;;5028000;28;20038;-72
2021/08/01 22:20:18;;;;;;;9.10;4.13;;;691.90;2304.00;;;;;;5030820;28;20028;-72
2021/08/01 22:22:44;;;;;;;9.10;4.00;;;691.70;2304.00;;;;;;5029691;28;20508;-72
2021/08/01 22:25:11;;;;;;;8.02;3.85;;;691.70;2329.60;;;;;;5030424;28;20132;-72
2021/08/01 22:27:37;;;;;;;12.40;4.10;;;691.50;2355.20;;;;;;5031916;28;20017;-72
2021/08/01 22:30:04;;;;;;;9.05;4.15;;;691.50;2355.20;;;;;;5030755;28;20025;-71
2021/08/01 22:32:31;;;;;;;7.70;3.92;;;666.50;2380.80;;;;;;5029892;28;20048;-72
2021/08/01 22:34:58;;;;;;;9.02;4.22;;;666.50;2406.40;;;;;;5030359;28;20033;-71
2021/08/01 22:37:28;;;;;;;13.48;4.57;;;666.50;2406.40;;;;;;5029068;28;20124;-72
2021/08/01 22:39:58;;;;;;;7.15;3.72;;;666.50;2406.40;;;;;;5027812;28;20029;-71
2021/08/01 22:42:24;;;;;;;11.00;4.82;;;666.30;2432.00;;;;;;5031272;28;20021;-71
2021/08/01 22:44:50;;;;;;;6.97;4.00;;;666.40;2432.00;;;;;;5030234;28;20030;-72
2021/08/01 22:47:16;;;;;;;6.63;4.43;;;666.30;2432.00;;;;;;5025822;28;20515;-72
2021/08/01 22:49:42;;;;;;;13.73;5.38;;;666.30;2432.00;;;;;;5031664;28;20477;-72
2021/08/01 22:52:08;;;;;;;12.40;4.45;;;666.30;2432.00;;;;;;5029286;28;20036;-72
2021/08/01 22:54:40;;;;;;;6.88;3.65;;;666.30;2432.00;;;;;;5028499;28;20029;-72
2021/08/01 22:57:06;;;;;;;7.68;3.97;;;666.40;2432.00;;;;;;5029503;28;20018;-72
2021/08/01 22:59:32;;;;;;;9.10;4.45;;;666.40;2432.00;;;;;;5029492;28;20042;-71
2021/08/01 23:02:04;;;;;;;7.70;4.45;;;666.40;2432.00;;;;;;5028284;28;20445;-71
2021/08/01 23:04:41;;;;;;;8.63;4.00;;;666.30;2432.00;;;;;;5030398;28;20049;-71
2021/08/01 23:07:18;;;;;;;6.90;4.25;;;666.20;2432.00;;;;;;5029758;28;20076;-71
2021/08/01 23:09:45;;;;;;;7.72;4.15;;;666.10;2432.00;;;;;;5028079;28;20080;-71
2021/08/01 23:12:22;;;;;;;8.93;3.97;;;665.90;2432.00;;;;;;5027215;28;20029;-72
2021/08/01 23:14:55;;;;;;;9.52;4.10;;;665.80;2432.00;;;;;;5031378;28;20058;-71
2021/08/01 23:17:39;;;;;;;6.35;3.88;;;665.80;2432.00;;;;;;5030180;28;20037;-74
2021/08/01 23:20:08;;;;;;;8.90;4.45;;;665.70;2432.00;;;;;;5031765;28;20021;-74
2021/08/01 23:22:39;;;;;;;11.98;4.45;;;665.70;2432.00;;;;;;5024612;28;20029;-74
2021/08/01 23:25:18;;;;;;;8.82;5.32;;;640.80;2432.00;;;;;;5028301;28;20545;-74
2021/08/01 23:27:45;;;;;;;7.88;4.30;;;640.80;2432.00;;;;;;5029691;28;20038;-74
2021/08/01 23:30:12;;;;;;;8.95;4.43;;;640.80;2432.00;;;;;;5030100;28;20040;-74
2021/08/01 23:32:40;;;;;;;9.18;3.95;;;640.80;2432.00;;;;;;5029221;28;20036;-73
2021/08/01 23:35:08;;;;;;;9.05;4.20;;;640.70;2432.00;;;;;;5032089;28;20046;-74
2021/08/01 23:37:36;;;;;;;13.25;6.25;;;640.70;2432.00;;;;;;5030725;28;20369;-74
2021/08/01 23:40:05;;;;;;;9.93;3.97;;;640.70;2432.00;;;;;;5029817;28;20029;-74
2021/08/01 23:42:38;;;;;;;7.30;3.95;;;640.70;2432.00;;;;;;5022951;28;20484;-74
2021/08/01 23:45:04;;;;;;;7.57;4.45;;;640.80;2432.00;;;;;;5022425;28;20116;-74
2021/08/01 23:47:31;;;;;;;7.13;3.97;;;665.60;2432.00;;;;;;5021816;28;20448;-74
2021/08/01 23:49:57;;;;;;;11.23;4.18;;;665.70;2432.00;;;;;;5029392;28;20030;-74
2021/08/01 23:52:33;;;;;;;8.80;5.28;;;665.70;2432.00;;;;;;5062898;28;20078;-74
2021/08/01 23:55:14;;;;;;;7.32;4.20;;;665.70;2432.00;;;;;;5029426;28;20033;-74
2021/08/01 23:58:02;;;;;;;7.20;3.92;;;665.60;2432.00;;;;;;5023605;28;20033;-74
